Time;durP1;ratioP1;P1;durP2;ratioP2;P2;SDS_P1;SDS_P2;PMS_P1;PMS_P2;Temp;Humidity;BMP_temperature;BMP_pressure;BME280_temperature;BME280_humidity;BME280_pressure;Samples;Min_cycle;Max_cycle;Signal;HPM_P1;HPM_P2
2022/01/25 00:24:49;;;;;;;28.73;18.38;;;;;;;1.41;100.00;100937.19;5092662;28;20649;-78
2022/01/25 00:27:37;;;;;;;32.28;19.38;;;;;;;1.21;100.00;100933.63;5092798;28;20283;-78
2022/01/25 00:30:23;;;;;;;28.45;18.55;;;;;;;1.17;100.00;100934.50;5092084;28;20206;-77
2022/01/25 00:32:50;;;;;;;26.02;17.67;;;;;;;1.00;100.00;100935.38;5093061;28;20176;-78
2022/01/25 00:35:17;;;;;;;28.95;18.83;;;;;;;1.14;100.00;100935.38;5092310;28;20199;-78
2022/01/25 00:37:43;;;;;;;27.42;19.73;;;;;;;1.15;100.00;100923.88;5093197;28;20351;-78
2022/01/25 00:40:12;;;;;;;30.13;19.70;;;;;;;1.25;100.00;100928.31;5092819;28;20203;-79
2022/01/25 00:42:38;;;;;;;29.20;19.33;;;;;;;1.10;100.00;100927.41;5092762;28;20199;-78
2022/01/25 00:45:08;;;;;;;27.60;17.70;;;;;;;1.01;100.00;100923.84;5092899;28;20219;-79
2022/01/25 00:47:34;;;;;;;27.02;18.60;;;;;;;0.89;100.00;100917.66;5092727;28;20200;-76
2022/01/25 00:50:01;;;;;;;27.42;19.05;;;;;;;0.83;100.00;100916.75;5093214;28;20191;-76
2022/01/25 00:53:54;;;;;;;28.40;19.05;;;;;;;0.71;100.00;100926.44;5092699;28;20310;-76
2022/01/25 00:55:27;;;;;;;27.75;19.10;;;;;;;0.73;100.00;100917.59;5092108;28;20579;-78
2022/01/25 00:57:54;;;;;;;33.60;19.35;;;;;;;0.57;100.00;100924.63;5092450;28;20188;-78
2022/01/25 01:00:21;;;;;;;33.22;19.60;;;;;;;0.55;100.00;100931.69;5092989;28;20199;-78
2022/01/25 01:02:48;;;;;;;28.30;19.35;;;;;;;0.55;100.00;100931.69;5092184;28;20187;-78
2022/01/25 01:05:14;;;;;;;29.70;18.95;;;;;;;0.62;100.00;100928.16;5092914;28;20196;-78
2022/01/25 01:07:42;;;;;;;31.52;20.10;;;;;;;0.77;100.00;100927.34;5092863;28;20275;-78
2022/01/25 01:10:12;;;;;;;28.33;18.15;;;;;;;0.97;100.00;100924.75;5092401;28;20228;-78
2022/01/25 01:15:36;;;;;;;29.85;20.05;;;;;;;1.23;100.00;100929.22;5035401;28;20602;-78
2022/01/25 01:31:56;;;;;;;27.75;18.50;;;;;;;1.03;100.00;100924.75;5087737;28;20208;-78
2022/01/25 01:37:46;;;;;;;29.20;19.75;;;;;;;0.81;100.00;100931.78;5030107;28;21038;-77
2022/01/25 01:43:03;;;;;;;32.08;20.30;;;;;;;0.66;100.00;100938.81;5029492;28;20265;-77
2022/01/25 01:45:42;;;;;;;27.65;18.70;;;;;;;0.59;100.00;100943.19;5029929;28;20190;-77
2022/01/25 01:48:16;;;;;;;26.95;17.73;;;;;;;0.70;100.00;100946.78;5029875;28;20538;-77
2022/01/25 01:50:42;;;;;;;31.60;19.98;;;;;;;0.71;100.00;100952.97;5029855;28;20187;-77
2022/01/25 01:53:10;;;;;;;29.75;19.50;;;;;;;0.54;100.00;100952.88;5029531;28;20277;-77
2022/01/25 01:55:37;;;;;;;28.02;19.08;;;;;;;0.67;100.00;100953.81;5029981;28;20699;-77
2022/01/25 01:58:04;;;;;;;29.85;18.55;;;;;;;0.51;100.00;100961.69;5029717;28;20273;-77
2022/01/25 02:00:36;;;;;;;29.33;20.00;;;;;;;0.43;100.00;100971.41;5029878;28;20528;-77
2022/01/25 02:03:03;;;;;;;30.35;19.30;;;;;;;0.47;100.00;100965.22;5029700;28;20191;-77
2022/01/25 02:05:31;;;;;;;26.90;18.73;;;;;;;0.83;100.00;100969.78;5029816;28;20273;-77
2022/01/25 02:07:57;;;;;;;31.67;20.60;;;;;;;0.87;100.00;100968.03;5030049;28;20297;-77
2022/01/25 02:10:26;;;;;;;30.35;19.08;;;;;;;0.98;100.00;100966.31;5029724;28;20208;-77
2022/01/25 02:12:53;;;;;;;30.15;19.25;;;;;;;1.08;100.00;100953.06;5028712;28;20285;-77
2022/01/25 02:15:21;;;;;;;29.08;18.65;;;;;;;1.14;100.00;100958.38;5029384;28;20241;-77
2022/01/25 02:23:25;;;;;;;31.52;20.60;;;;;;;0.68;100.00;100948.53;5028903;28;20683;-77
2022/01/25 02:25:54;;;;;;;28.42;18.50;;;;;;;0.72;100.00;100952.06;5029584;28;20202;-78
2022/01/25 02:28:22;;;;;;;30.20;20.10;;;;;;;0.61;100.00;100946.72;5029127;28;20194;-77
2022/01/25 02:30:49;;;;;;;28.77;18.63;;;;;;;0.72;100.00;100954.72;5029432;28;20542;-77
2022/01/25 02:33:16;;;;;;;26.50;18.60;;;;;;;0.73;100.00;100952.06;5029358;28;20293;-77
2022/01/25 02:35:44;;;;;;;28.33;19.48;;;;;;;0.56;100.00;100954.66;5035679;28;20705;-77
2022/01/25 02:38:13;;;;;;;32.90;20.25;;;;;;;0.43;100.00;100960.78;5048703;28;20236;-78
2022/01/25 02:40:40;;;;;;;30.23;19.33;;;;;;;0.18;100.00;100958.00;5048610;28;20285;-78
2022/01/25 02:43:07;;;;;;;30.30;19.33;;;;;;;0.28;100.00;100955.41;5048875;28;20280;-78
2022/01/25 02:45:36;;;;;;;33.38;20.00;;;;;;;0.17;100.00;100952.69;5048877;28;20248;-78
2022/01/25 02:50:50;;;;;;;35.65;20.15;;;;;;;0.13;100.00;100949.13;5035279;28;20192;-78
2022/01/25 02:53:17;;;;;;;29.13;19.10;;;;;;;0.09;100.00;100943.78;5035532;28;20629;-77
2022/01/25 02:55:44;;;;;;;34.83;19.13;;;;;;;0.35;100.00;100941.31;5035544;28;20241;-77
2022/01/25 02:58:11;;;;;;;32.15;19.13;;;;;;;0.29;100.00;100950.09;5035659;28;20670;-78
2022/01/25 03:00:38;;;;;;;28.67;18.63;;;;;;;0.23;100.00;100963.34;5035102;28;20204;-77
2022/01/25 03:03:05;;;;;;;27.33;18.58;;;;;;;0.12;100.00;100957.97;5035412;28;20645;-78
2022/01/25 03:05:32;;;;;;;31.40;20.40;;;;;;;0.27;100.00;100956.25;5035075;28;20298;-78
2022/01/25 03:08:01;;;;;;;31.45;21.60;;;;;;;0.17;100.00;100953.56;5035216;28;20548;-78
2022/01/25 03:10:36;;;;;;;32.58;18.95;;;;;;;0.18;100.00;100957.09;5035012;28;20596;-78
2022/01/25 03:13:05;;;;;;;31.33;18.95;;;;;;;-0.01;100.00;100964.06;5034693;28;20203;-78
2022/01/25 03:15:53;;;;;;;30.88;20.25;;;;;;;-0.11;100.00;100957.81;5035005;28;20230;-78
2022/01/25 03:18:37;;;;;;;32.20;21.00;;;;;;;-0.09;100.00;100963.09;5034491;28;20206;-77
2022/01/25 03:21:18;;;;;;;28.48;18.92;;;;;;;0.04;100.00;100953.50;5034983;28;20193;-77
2022/01/25 03:23:46;;;;;;;34.20;21.42;;;;;;;-0.04;100.00;100954.31;5034545;28;20197;-78
2022/01/25 03:26:13;;;;;;;31.33;20.73;;;;;;;-0.11;100.00;100951.63;5034454;28;20652;-76
2022/01/25 03:28:40;;;;;;;29.30;20.30;;;;;;;-0.22;100.00;100960.38;5034785;28;20397;-76
2022/01/25 03:31:06;;;;;;;29.63;19.77;;;;;;;-0.15;100.00;100952.50;5034255;28;20198;-76
2022/01/25 03:33:33;;;;;;;30.98;20.75;;;;;;;0.01;100.00;100954.34;5034675;28;20196;-76
2022/01/25 03:36:00;;;;;;;30.10;20.23;;;;;;;0.04;100.00;100957.00;5034124;28;20324;-77
2022/01/25 03:38:26;;;;;;;26.60;18.38;;;;;;;0.09;100.00;100950.00;5034386;28;20212;-76
2022/01/25 03:40:54;;;;;;;32.40;19.17;;;;;;;-0.01;100.00;100959.63;5034505;28;20193;-77
2022/01/25 03:43:21;;;;;;;33.15;20.45;;;;;;;0.12;100.00;100960.59;5034411;28;20206;-79
2022/01/25 03:45:59;;;;;;;30.23;19.33;;;;;;;0.29;100.00;100959.81;5034725;28;20691;-79
2022/01/25 03:51:10;;;;;;;28.50;19.08;;;;;;;0.39;100.00;100953.69;5030010;28;20208;-78
2022/01/25 03:53:36;;;;;;;28.85;18.13;;;;;;;0.36;100.00;100946.63;5034586;28;20589;-78
2022/01/25 03:56:05;;;;;;;34.20;20.75;;;;;;;0.38;100.00;100938.66;5033829;28;20229;-78
2022/01/25 03:58:32;;;;;;;34.13;21.95;;;;;;;0.66;100.00;100936.16;5033677;28;20187;-78
2022/01/25 04:00:58;;;;;;;31.95;21.30;;;;;;;0.62;100.00;100933.47;5033693;28;20193;-78
2022/01/25 04:03:30;;;;;;;29.98;21.23;;;;;;;0.41;100.00;100938.69;5033793;28;20285;-79
2022/01/25 04:05:58;;;;;;;29.75;19.15;;;;;;;0.38;100.00;100928.94;5034092;28;20221;-78
2022/01/25 04:08:24;;;;;;;29.90;19.88;;;;;;;0.46;100.00;100930.75;5034326;28;20201;-78
2022/01/25 04:10:51;;;;;;;32.90;19.50;;;;;;;0.30;100.00;100935.09;5033323;28;20281;-78
2022/01/25 04:13:19;;;;;;;31.13;19.20;;;;;;;-0.04;100.00;100941.09;5034062;28;20190;-78
2022/01/25 04:15:47;;;;;;;29.90;20.65;;;;;;;-0.13;100.00;100937.50;5033313;28;20182;-78
2022/01/25 04:18:24;;;;;;;30.27;18.80;;;;;;;-0.17;100.00;100941.88;5033923;28;20593;-78
2022/01/25 04:21:08;;;;;;;30.75;19.48;;;;;;;-0.22;100.00;100931.25;5033336;28;20186;-78
2022/01/25 04:26:19;;;;;;;33.20;19.25;;;;;;;0.10;100.00;100927.03;5033491;28;20529;-78
2022/01/25 04:28:47;;;;;;;33.13;19.20;;;;;;;0.08;100.00;100934.97;5032729;28;20214;-77
2022/01/25 04:31:16;;;;;;;29.25;19.38;;;;;;;0.02;100.00;100924.34;5033519;28;20186;-77
2022/01/25 04:33:55;;;;;;;32.55;19.38;;;;;;;0.13;100.00;100921.75;5033360;28;20204;-77
2022/01/25 04:36:53;;;;;;;32.85;20.27;;;;;;;0.02;100.00;100926.97;5032784;28;20233;-77
2022/01/25 04:50:30;;;;;;;29.75;18.52;;;;;;;-0.25;100.00;100917.09;5032864;28;20204;-77
2022/01/25 04:53:06;;;;;;;34.42;20.35;;;;;;;-0.24;100.00;100922.41;5033194;28;20252;-77
2022/01/25 04:55:39;;;;;;;31.15;19.50;;;;;;;-0.11;100.00;100918.09;5033145;28;20190;-77
2022/01/25 04:58:12;;;;;;;31.23;19.63;;;;;;;0.05;100.00;100913.78;5032763;28;20280;-77
2022/01/25 05:00:40;;;;;;;32.08;18.45;;;;;;;0.20;100.00;100907.66;5032723;28;20186;-77
2022/01/25 05:03:10;;;;;;;30.95;18.95;;;;;;;0.33;100.00;100908.63;5033136;28;20240;-77
2022/01/25 05:05:42;;;;;;;27.45;18.00;;;;;;;0.02;100.00;100918.16;5032686;28;20202;-77
2022/01/25 05:08:18;;;;;;;33.00;20.13;;;;;;;-0.10;100.00;100918.97;5032885;28;20182;-77
2022/01/25 05:10:52;;;;;;;30.02;18.90;;;;;;;0.06;100.00;100926.13;5032486;28;20280;-78
2022/01/25 05:13:37;;;;;;;27.48;19.08;;;;;;;-0.09;100.00;100919.00;5033032;28;20588;-77
2022/01/25 05:16:16;;;;;;;29.85;18.67;;;;;;;-0.27;100.00;100922.41;5032626;28;20269;-76
2022/01/25 05:18:45;;;;;;;33.72;19.85;;;;;;;-0.39;100.00;100919.66;5032853;28;20188;-76
2022/01/25 05:23:56;;;;;;;37.03;22.85;;;;;;;-0.30;100.00;100922.34;5032570;28;20181;-76
2022/01/25 05:26:23;;;;;;;48.78;26.92;;;;;;;-0.42;100.00;100924.94;5032028;28;20214;-77
2022/01/25 05:28:50;;;;;;;39.60;25.75;;;;;;;-0.34;100.00;100936.47;5032819;28;20189;-76
2022/01/25 05:31:19;;;;;;;38.25;21.05;;;;;;;-0.48;100.00;100933.69;5032033;28;20289;-79
2022/01/25 05:33:45;;;;;;;36.55;21.20;;;;;;;-0.52;100.00;100942.50;5032158;28;20302;-78
2022/01/25 05:36:13;;;;;;;36.00;23.00;;;;;;;-0.24;100.00;100937.41;5029626;28;20272;-77
2022/01/25 05:38:42;;;;;;;32.40;20.02;;;;;;;-0.31;100.00;100936.47;5032119;28;20201;-77
2022/01/25 05:41:09;;;;;;;33.28;21.20;;;;;;;-0.36;100.00;100940.88;5032292;28;20197;-76
2022/01/25 05:44:12;;;;;;;29.38;18.23;;;;;;;-0.47;100.00;100938.13;5032141;28;20598;-77
2022/01/25 05:46:45;;;;;;;30.95;21.05;;;;;;;-0.40;100.00;100943.47;5032367;28;20539;-77
2022/01/25 05:49:12;;;;;;;31.80;20.50;;;;;;;-0.36;100.00;100937.31;5032663;28;20190;-79
2022/01/25 05:51:40;;;;;;;34.40;19.95;;;;;;;-0.25;100.00;100941.84;5032313;28;20204;-78
2022/01/25 05:54:06;;;;;;;28.80;19.10;;;;;;;-0.27;100.00;100934.72;5032588;28;20202;-77
2022/01/25 05:56:33;;;;;;;30.33;19.48;;;;;;;-0.27;100.00;100938.28;5032414;28;20257;-77
2022/01/25 05:58:59;;;;;;;31.55;20.02;;;;;;;-0.40;100.00;100944.34;5032784;28;20190;-78
2022/01/25 06:01:26;;;;;;;32.78;20.15;;;;;;;-0.50;100.00;100942.50;5031423;28;20292;-77
2022/01/25 06:03:55;;;;;;;35.63;21.23;;;;;;;-0.49;100.00;100942.50;5031892;28;20671;-77
2022/01/25 06:06:22;;;;;;;31.60;19.80;;;;;;;-0.43;100.00;100939.94;5032172;28;20719;-77
2022/01/25 06:08:48;;;;;;;32.05;19.48;;;;;;;-0.46;100.00;100945.16;5039433;28;20643;-76
2022/01/25 06:11:15;;;;;;;29.92;18.70;;;;;;;-0.50;100.00;100942.50;5051162;28;20205;-77
2022/01/25 06:13:42;;;;;;;36.25;20.98;;;;;;;-0.56;100.00;100947.75;5051083;28;20295;-78
2022/01/25 06:16:08;;;;;;;35.63;20.95;;;;;;;-0.70;100.00;100948.50;5051139;28;20182;-77
2022/01/25 06:18:35;;;;;;;30.50;19.98;;;;;;;-0.67;100.00;100948.53;5043120;28;20223;-79
2022/01/25 06:21:03;;;;;;;31.00;19.40;;;;;;;-0.52;100.00;100953.09;5030756;28;20288;-78
2022/01/25 06:23:30;;;;;;;30.60;19.55;;;;;;;-0.43;100.00;100942.56;5033893;28;20213;-79
2022/01/25 06:25:57;;;;;;;35.40;21.98;;;;;;;-0.29;100.00;100939.16;5034519;28;20206;-79
2022/01/25 06:28:23;;;;;;;32.33;20.02;;;;;;;-0.63;100.00;100944.16;5034646;28;20197;-78
2022/01/25 06:30:50;;;;;;;35.33;20.15;;;;;;;-0.63;100.00;100929.16;5034146;28;20196;-78
2022/01/25 06:33:17;;;;;;;32.25;21.40;;;;;;;-0.48;100.00;100938.97;5034666;28;20238;-77
2022/01/25 06:35:45;;;;;;;32.65;19.35;;;;;;;-0.58;100.00;100945.09;5024783;28;20305;-77
2022/01/25 06:38:13;;;;;;;32.60;19.88;;;;;;;-0.61;100.00;100946.81;5014994;28;20265;-77
2022/01/25 06:40:40;;;;;;;41.90;23.92;;;;;;;-0.59;100.00;100940.66;5015466;28;20196;-78
2022/01/25 06:43:07;;;;;;;35.75;22.10;;;;;;;-0.69;100.00;100944.97;5015265;28;20289;-78
2022/01/25 06:45:39;;;;;;;38.78;21.15;;;;;;;-0.44;100.00;100939.91;5015143;28;20289;-77
2022/01/25 06:48:06;;;;;;;36.88;22.70;;;;;;;-0.38;100.00;100945.25;5030660;28;20248;-79
2022/01/25 06:50:34;;;;;;;81.78;42.85;;;;;;;-0.06;100.00;100952.56;5035051;28;20533;-78
2022/01/25 06:53:01;;;;;;;41.13;22.48;;;;;;;-0.05;100.00;100955.19;5035679;28;20216;-77
2022/01/25 06:55:29;;;;;;;36.20;21.95;;;;;;;-0.11;100.00;100954.28;5034699;28;20288;-78
2022/01/25 06:57:57;;;;;;;41.63;21.15;;;;;;;-0.02;100.00;100954.34;5034327;28;20221;-79
2022/01/25 07:00:24;;;;;;;40.67;20.77;;;;;;;0.00;100.00;100960.53;5034852;28;20277;-78
2022/01/25 07:02:51;;;;;;;34.97;21.67;;;;;;;-0.06;100.00;100965.78;5038417;28;20194;-78
2022/01/25 07:05:18;;;;;;;34.60;21.10;;;;;;;0.02;100.00;100964.06;5048860;28;20194;-77
2022/01/25 07:07:46;;;;;;;33.28;21.30;;;;;;;-0.32;100.00;100957.63;5054466;28;20283;-78
2022/01/25 07:10:14;;;;;;;35.15;22.23;;;;;;;-0.10;100.00;100971.94;5034993;28;20198;-79
2022/01/25 07:12:42;;;;;;;34.17;20.50;;;;;;;-0.12;100.00;100971.03;5035680;28;20271;-78
2022/01/25 07:15:09;;;;;;;35.05;20.05;;;;;;;0.01;100.00;100964.94;5034186;28;20678;-77
2022/01/25 07:18:09;;;;;;;35.08;20.17;;;;;;;-0.17;100.00;100957.75;5034113;28;20314;-77
2022/01/25 07:20:36;;;;;;;32.25;18.80;;;;;;;-0.07;100.00;100964.00;5034096;28;20277;-77
2022/01/25 07:23:03;;;;;;;34.67;18.50;;;;;;;-0.08;100.00;100964.88;5034096;28;20292;-76
2022/01/25 07:25:30;;;;;;;28.85;17.02;;;;;;;0.15;100.00;100962.38;5033709;28;20193;-78
2022/01/25 07:27:58;;;;;;;27.95;17.60;;;;;;;-0.09;100.00;100957.81;5033813;28;20526;-79
2022/01/25 07:30:25;;;;;;;27.65;17.88;;;;;;;-0.15;100.00;100963.06;5033720;28;20218;-79
2022/01/25 07:32:52;;;;;;;32.75;17.98;;;;;;;-0.07;100.00;100961.34;5030700;28;20207;-76
2022/01/25 07:35:18;;;;;;;29.70;17.88;;;;;;;-0.08;100.00;100971.06;5018948;28;20234;-77
2022/01/25 07:37:45;;;;;;;30.25;18.23;;;;;;;-0.04;100.00;100971.97;5033772;28;20288;-77
2022/01/25 07:40:13;;;;;;;29.10;18.10;;;;;;;-0.08;100.00;100972.84;5034039;28;20206;-77
2022/01/25 07:42:41;;;;;;;42.15;19.80;;;;;;;-0.02;100.00;100968.47;5034415;28;20261;-77
2022/01/25 07:45:11;;;;;;;35.45;19.08;;;;;;;0.22;100.00;100972.13;5034048;28;20225;-77
2022/01/25 07:47:39;;;;;;;33.78;19.00;;;;;;;0.18;100.00;100984.50;5034157;28;20632;-77
2022/01/25 07:50:07;;;;;;;30.65;17.23;;;;;;;0.18;100.00;100984.50;5033856;28;20636;-77
2022/01/25 07:52:34;;;;;;;30.70;18.45;;;;;;;0.22;100.00;100984.50;5033723;28;20202;-77
2022/01/25 07:55:01;;;;;;;31.67;18.20;;;;;;;0.57;100.00;100982.94;5033281;28;20204;-77
2022/01/25 07:57:27;;;;;;;32.25;18.10;;;;;;;0.82;100.00;100983.06;5032606;28;20241;-77
2022/01/25 07:59:55;;;;;;;32.63;17.42;;;;;;;1.16;100.00;100973.41;5032823;28;20277;-77
2022/01/25 08:02:23;;;;;;;34.53;20.85;;;;;;;1.21;100.00;100979.63;5033432;28;20204;-78
2022/01/25 08:04:50;;;;;;;38.20;20.63;;;;;;;1.36;100.00;100985.84;5033561;28;20307;-76
2022/01/25 08:07:17;;;;;;;41.42;22.35;;;;;;;1.50;100.00;100981.44;5033073;28;20590;-78
2022/01/25 08:09:44;;;;;;;39.30;22.00;;;;;;;1.58;100.00;100986.75;5033358;28;20776;-78
2022/01/25 08:12:12;;;;;;;36.65;21.00;;;;;;;1.68;100.00;100977.91;5032774;28;20316;-77
2022/01/25 08:14:41;;;;;;;42.30;21.13;;;;;;;1.56;100.00;100977.88;5013272;28;20532;-78
2022/01/25 08:17:08;;;;;;;40.42;22.67;;;;;;;1.73;100.00;100978.78;5013443;28;20595;-78
2022/01/25 08:19:36;;;;;;;33.90;21.15;;;;;;;1.63;100.00;100979.69;5012856;28;20187;-75
2022/01/25 08:22:03;;;;;;;30.98;18.88;;;;;;;1.53;100.00;100972.59;5014756;28;20217;-78
2022/01/25 08:24:30;;;;;;;37.10;20.30;;;;;;;1.45;100.00;100975.25;5032872;28;20213;-77
2022/01/25 08:26:57;;;;;;;38.28;20.45;;;;;;;1.38;100.00;100969.06;5032831;28;20539;-75
2022/01/25 08:29:24;;;;;;;38.95;19.90;;;;;;;1.52;100.00;100969.06;5032230;28;20592;-76
2022/01/25 08:31:51;;;;;;;37.35;20.13;;;;;;;1.66;100.00;100969.94;5032454;28;20670;-76
2022/01/25 08:34:18;;;;;;;35.88;20.17;;;;;;;1.61;100.00;100971.72;5033092;28;20643;-78
2022/01/25 08:36:46;;;;;;;36.38;21.17;;;;;;;1.63;100.00;100971.72;5032608;28;20234;-78
2022/01/25 08:39:13;;;;;;;36.67;21.30;;;;;;;1.46;100.00;100967.28;5032777;28;20309;-75
2022/01/25 08:41:40;;;;;;;35.75;19.05;;;;;;;1.85;100.00;100973.50;5032336;28;20221;-76
2022/01/25 08:44:07;;;;;;;37.35;19.27;;;;;;;1.68;100.00;100972.59;5032612;28;20202;-76
2022/01/25 08:46:34;;;;;;;35.28;19.55;;;;;;;1.98;100.00;100970.81;5032563;28;20196;-77
2022/01/25 08:49:02;;;;;;;37.28;20.02;;;;;;;2.00;100.00;100982.31;5032364;28;20289;-76
2022/01/25 08:51:29;;;;;;;35.38;20.77;;;;;;;2.15;100.00;100979.66;5032032;28;20205;-76
2022/01/25 08:53:59;;;;;;;42.25;21.33;;;;;;;2.23;100.00;100972.53;5031250;28;20190;-75
2022/01/25 08:56:25;;;;;;;34.90;19.92;;;;;;;2.19;100.00;100970.75;5032137;28;20285;-77
2022/01/25 08:58:52;;;;;;;37.97;20.10;;;;;;;2.40;100.00;100977.84;5032671;28;20268;-76
2022/01/25 09:01:19;;;;;;;40.83;20.73;;;;;;;2.44;100.00;100982.25;5017622;28;20221;-77
2022/01/25 09:03:46;;;;;;;37.25;20.23;;;;;;;2.74;100.00;100984.78;5012636;28;20593;-77
2022/01/25 09:06:12;;;;;;;36.75;20.63;;;;;;;2.70;100.00;100984.81;5013218;28;20326;-76
2022/01/25 09:08:39;;;;;;;33.28;18.65;;;;;;;2.67;100.00;100982.19;5031837;28;20233;-76
2022/01/25 09:11:07;;;;;;;40.20;21.08;;;;;;;2.70;100.00;100992.78;5031936;28;20232;-77
2022/01/25 09:13:35;;;;;;;34.58;18.52;;;;;;;2.63;100.00;100980.41;5031900;28;20551;-77
2022/01/25 09:16:02;;;;;;;32.58;18.85;;;;;;;2.65;100.00;100981.28;5031380;28;20197;-78
2022/01/25 09:18:29;;;;;;;31.65;17.60;;;;;;;2.35;100.00;100978.72;5031717;28;20257;-77
2022/01/25 09:20:56;;;;;;;35.80;17.40;;;;;;;2.41;100.00;100981.38;5031966;28;20236;-79
2022/01/25 09:23:24;;;;;;;39.22;19.38;;;;;;;2.17;100.00;100983.19;5032653;28;20215;-78
2022/01/25 09:25:53;;;;;;;42.17;22.15;;;;;;;2.32;100.00;100986.72;5032419;28;20214;-78
2022/01/25 09:28:21;;;;;;;36.97;20.20;;;;;;;2.36;100.00;100977.84;5031659;28;20198;-78
2022/01/25 09:30:48;;;;;;;37.63;20.48;;;;;;;2.36;100.00;100984.03;5031824;28;20215;-78
2022/01/25 09:33:15;;;;;;;34.80;19.25;;;;;;;2.30;100.00;100974.28;5031846;28;20250;-79
2022/01/25 09:35:43;;;;;;;37.55;19.40;;;;;;;2.36;100.00;100988.47;5031960;28;20250;-78
2022/01/25 09:38:10;;;;;;;35.97;20.45;;;;;;;2.45;100.00;100984.00;5031819;28;20206;-79
2022/01/25 09:40:37;;;;;;;38.33;22.55;;;;;;;2.64;100.00;100978.63;5032634;28;20186;-78
2022/01/25 09:43:06;;;;;;;35.28;19.38;;;;;;;2.62;100.00;100986.63;5031946;28;20277;-78
2022/01/25 09:45:35;;;;;;;40.13;21.20;;;;;;;2.42;100.00;100984.03;5031826;28;20246;-79
2022/01/25 09:48:02;;;;;;;44.95;22.08;;;;;;;2.37;100.00;100991.09;5031126;28;20222;-79
2022/01/25 09:50:28;;;;;;;37.78;20.95;;;;;;;2.77;100.00;100991.00;5031363;28;20186;-79
2022/01/25 09:52:55;;;;;;;39.90;21.67;;;;;;;2.84;100.00;100983.88;5031295;28;20256;-80
2022/01/25 09:55:25;;;;;;;35.92;19.50;;;;;;;2.90;100.00;100987.41;5031230;28;20563;-78
2022/01/25 09:57:52;;;;;;;37.88;20.42;;;;;;;2.91;100.00;100988.28;5033063;28;20230;-78
2022/01/25 10:00:20;;;;;;;44.13;20.95;;;;;;;2.69;100.00;100988.38;5029724;28;20191;-79
2022/01/25 10:02:56;;;;;;;47.83;22.88;;;;;;;2.70;100.00;100992.78;5036125;28;20199;-79
2022/01/25 10:05:28;;;;;;;49.72;23.05;;;;;;;2.55;100.00;101000.81;5036089;28;20751;-80
2022/01/25 10:08:00;;;;;;;39.22;21.55;;;;;;;2.65;100.00;100991.06;5036279;28;20229;-79
2022/01/25 10:10:29;;;;;;;46.97;22.05;;;;;;;2.55;100.00;101011.44;5035917;28;20596;-78
2022/01/25 10:12:57;;;;;;;45.03;21.73;;;;;;;2.69;100.00;101011.41;5034934;28;20691;-78
2022/01/25 10:15:26;;;;;;;45.22;22.15;;;;;;;2.87;100.00;101003.38;5035209;28;20297;-77
2022/01/25 10:17:54;;;;;;;40.38;23.30;;;;;;;3.06;100.00;101004.16;5035134;28;20274;-78
2022/01/25 10:20:30;;;;;;;38.15;22.05;;;;;;;3.09;100.00;100993.50;5035324;28;20225;-78
2022/01/25 10:23:00;;;;;;;41.65;22.55;;;;;;;3.14;100.00;100996.13;5034792;28;20288;-77
2022/01/25 10:25:37;;;;;;;36.40;21.25;;;;;;;3.24;100.00;100995.22;5035391;28;20190;-77
2022/01/25 10:28:06;;;;;;;37.97;21.52;;;;;;;3.20;100.00;101000.56;5034259;28;20266;-77
2022/01/25 10:30:39;;;;;;;38.95;21.98;;;;;;;3.04;100.00;100997.09;5035118;28;20552;-77
2022/01/25 10:33:21;;;;;;;36.70;21.95;;;;;;;3.14;100.00;101001.47;5035174;28;20623;-77
2022/01/25 10:35:48;;;;;;;38.80;22.48;;;;;;;2.92;100.00;101006.03;5034148;28;20266;-78
2022/01/25 10:38:20;;;;;;;39.58;21.73;;;;;;;3.13;100.00;101005.91;5034655;28;20230;-78
2022/01/25 10:40:55;;;;;;;38.58;20.40;;;;;;;3.22;100.00;101014.75;5035666;28;20659;-77
2022/01/25 10:43:22;;;;;;;40.75;20.42;;;;;;;3.18;100.00;101005.00;5034788;28;20545;-79
2022/01/25 10:46:23;;;;;;;41.85;22.52;;;;;;;3.22;100.00;101004.97;5033880;28;20192;-78
2022/01/25 10:48:54;;;;;;;41.83;22.63;;;;;;;3.10;100.00;101003.28;5034967;28;20603;-78
2022/01/25 10:51:23;;;;;;;38.40;21.67;;;;;;;3.30;100.00;101008.50;5034378;28;20218;-78
2022/01/25 10:54:06;;;;;;;37.85;21.67;;;;;;;3.47;98.47;101010.16;5034908;28;20240;-78
2022/01/25 10:56:48;;;;;;;40.53;23.20;;;;;;;3.31;100.00;101002.25;5033908;28;20254;-80
2022/01/25 10:59:18;;;;;;;45.28;24.23;;;;;;;3.48;98.72;101006.59;5034272;28;20261;-79
2022/01/25 11:01:50;;;;;;;38.28;21.15;;;;;;;3.50;96.81;101005.69;5033535;28;20211;-78
2022/01/25 11:04:20;;;;;;;43.45;23.30;;;;;;;3.11;98.54;101002.38;5034089;28;20190;-79
2022/01/25 11:06:55;;;;;;;42.10;21.67;;;;;;;2.92;100.00;101001.56;5034003;28;20279;-79
2022/01/25 11:09:25;;;;;;;44.70;25.67;;;;;;;2.63;100.00;100993.72;5030941;28;20191;-79
2022/01/25 11:11:56;;;;;;;41.30;24.58;;;;;;;2.82;100.00;101004.28;5030753;28;20629;-78
2022/01/25 11:17:08;;;;;;;43.40;23.30;;;;;;;2.93;100.00;100991.81;5033308;28;20526;-77
2022/01/25 11:19:37;;;;;;;45.05;24.35;;;;;;;2.96;100.00;100990.91;5033802;28;20649;-77
2022/01/25 11:22:06;;;;;;;41.22;23.02;;;;;;;3.24;100.00;100989.00;5033649;28;20225;-78
2022/01/25 11:24:43;;;;;;;49.25;29.52;;;;;;;3.29;100.00;100989.84;5033947;28;20669;-77
2022/01/25 11:27:11;;;;;;;45.67;22.73;;;;;;;3.50;99.45;100986.16;5033657;28;20628;-78
2022/01/25 11:29:42;;;;;;;43.63;25.33;;;;;;;3.32;100.00;100979.16;5034138;28;20281;-79
2022/01/25 11:32:11;;;;;;;44.13;23.88;;;;;;;3.40;100.00;100988.00;5034416;28;20204;-79
2022/01/25 11:34:41;;;;;;;47.35;25.80;;;;;;;3.58;98.23;100987.00;5034044;28;20295;-77
2022/01/25 11:37:09;;;;;;;39.85;24.10;;;;;;;3.19;100.00;100975.72;5033374;28;20362;-78
2022/01/25 11:39:39;;;;;;;39.80;24.48;;;;;;;3.18;100.00;100970.41;5034207;28;20239;-80
2022/01/25 11:42:09;;;;;;;41.60;24.15;;;;;;;3.39;99.80;100980.03;5034152;28;20273;-79
2022/01/25 11:44:46;;;;;;;39.80;23.08;;;;;;;3.38;100.00;100978.25;5033235;28;20207;-77
2022/01/25 11:47:16;;;;;;;47.53;28.85;;;;;;;3.49;100.00;100971.09;5034009;28;20202;-78
2022/01/25 11:49:52;;;;;;;41.97;24.67;;;;;;;3.61;98.45;100978.97;5033501;28;20519;-78
2022/01/25 11:52:19;;;;;;;49.47;25.48;;;;;;;3.65;98.19;100972.72;5013975;28;20269;-78
2022/01/25 11:54:46;;;;;;;42.28;25.67;;;;;;;3.74;98.16;100982.44;5023357;28;20191;-78
2022/01/25 11:57:15;;;;;;;51.00;24.65;;;;;;;3.76;98.14;100980.66;5033306;28;20235;-78
2022/01/25 11:59:43;;;;;;;45.58;24.50;;;;;;;3.87;96.21;100981.44;5033356;28;20267;-76
2022/01/25 12:02:10;;;;;;;44.53;23.52;;;;;;;3.87;94.52;100970.78;5033636;28;20213;-78
2022/01/25 12:04:36;;;;;;;47.28;26.27;;;;;;;3.80;95.97;100968.16;5032764;28;20199;-77
2022/01/25 12:07:23;;;;;;;44.08;25.23;;;;;;;3.86;96.44;100974.31;5033105;28;20627;-79
2022/01/25 12:10:02;;;;;;;47.22;26.35;;;;;;;3.79;97.91;100974.41;5033560;28;20197;-77
2022/01/25 12:12:28;;;;;;;48.40;25.48;;;;;;;3.74;98.05;100974.44;5033222;28;20199;-77
2022/01/25 12:14:56;;;;;;;40.80;23.50;;;;;;;3.82;96.32;100963.72;5033199;28;20975;-80
2022/01/25 12:17:24;;;;;;;50.88;25.10;;;;;;;3.73;99.05;100965.56;5033186;28;20210;-77
2022/01/25 12:19:53;;;;;;;44.00;24.90;;;;;;;3.92;97.00;100960.06;5031704;28;20209;-77
2022/01/25 12:22:37;;;;;;;45.13;23.67;;;;;;;3.99;95.77;100959.13;5033261;28;20533;-77
2022/01/25 12:25:12;;;;;;;46.47;24.42;;;;;;;3.98;95.68;100952.03;5032444;28;20197;-78
2022/01/25 12:27:51;;;;;;;46.20;26.70;;;;;;;3.88;96.15;100940.56;5032554;28;20204;-79
2022/01/25 12:30:30;;;;;;;42.03;22.85;;;;;;;3.86;97.11;100947.69;5032326;28;20188;-79
2022/01/25 12:33:01;;;;;;;42.58;25.50;;;;;;;3.85;97.37;100948.59;5032813;28;20212;-79
2022/01/25 12:35:46;;;;;;;47.08;25.10;;;;;;;3.84;96.49;100952.13;5032069;28;20282;-80